sensor_id;sensor_type;location;lat;lon;timestamp;temperature;humidity
19060;DHT22;9663;48.996;8.334;2022-12-07T00:01:12;7.80;74.20
19060;DHT22;9663;48.996;8.334;2022-12-07T00:03:40;7.80;74.10
19060;DHT22;9663;48.996;8.334;2022-12-07T00:06:11;7.80;74.20
19060;DHT22;9663;48.996;8.334;2022-12-07T00:08:39;8.60;74.70
19060;DHT22;9663;48.996;8.334;2022-12-07T00:11:10;7.70;74.90
19060;DHT22;9663;48.996;8.334;2022-12-07T00:13:38;7.70;74.20
19060;DHT22;9663;48.996;8.334;2022-12-07T00:16:10;7.70;74.20
19060;DHT22;9663;48.996;8.334;2022-12-07T00:18:40;7.60;74.10
19060;DHT22;9663;48.996;8.334;2022-12-07T00:21:11;9.40;75.20
19060;DHT22;9663;48.996;8.334;2022-12-07T00:23:38;7.90;74.20
19060;DHT22;9663;48.996;8.334;2022-12-07T00:26:13;7.60;74.10
19060;DHT22;9663;48.996;8.334;2022-12-07T00:28:40;8.70;74.90
19060;DHT22;9663;48.996;8.334;2022-12-07T00:31:11;7.80;74.30
19060;DHT22;9663;48.996;8.334;2022-12-07T00:33:38;8.10;74.50
19060;DHT22;9663;48.996;8.334;2022-12-07T00:36:07;7.60;74.10
19060;DHT22;9663;48.996;8.334;2022-12-07T00:38:38;7.70;74.20
19060;DHT22;9663;48.996;8.334;2022-12-07T00:41:07;7.80;74.20
19060;DHT22;9663;48.996;8.334;2022-12-07T00:43:36;7.70;74.20
19060;DHT22;9663;48.996;8.334;2022-12-07T00:46:02;8.10;75.40
19060;DHT22;9663;48.996;8.334;2022-12-07T00:48:28;7.60;74.20
19060;DHT22;9663;48.996;8.334;2022-12-07T00:50:54;7.80;74.40
19060;DHT22;9663;48.996;8.334;2022-12-07T00:53:20;7.90;75.20
19060;DHT22;9663;48.996;8.334;2022-12-07T00:55:46;7.70;74.30
19060;DHT22;9663;48.996;8.334;2022-12-07T00:58:12;9.40;75.30
19060;DHT22;9663;48.996;8.334;2022-12-07T01:00:39;8.50;74.80
19060;DHT22;9663;48.996;8.334;2022-12-07T01:03:08;8.40;74.80
19060;DHT22;9663;48.996;8.334;2022-12-07T01:05:35;7.80;74.40
19060;DHT22;9663;48.996;8.334;2022-12-07T01:08:02;8.70;75.00
19060;DHT22;9663;48.996;8.334;2022-12-07T01:10:28;7.80;74.40
19060;DHT22;9663;48.996;8.334;2022-12-07T01:12:56;7.70;74.50
19060;DHT22;9663;48.996;8.334;2022-12-07T01:15:22;7.60;74.30
19060;DHT22;9663;48.996;8.334;2022-12-07T01:17:48;8.30;74.70
19060;DHT22;9663;48.996;8.334;2022-12-07T01:20:14;7.90;74.50
19060;DHT22;9663;48.996;8.334;2022-12-07T01:22:42;7.60;74.30
19060;DHT22;9663;48.996;8.334;2022-12-07T01:25:10;7.70;74.40
19060;DHT22;9663;48.996;8.334;2022-12-07T01:27:37;9.00;75.10
19060;DHT22;9663;48.996;8.334;2022-12-07T01:30:06;7.60;74.40
19060;DHT22;9663;48.996;8.334;2022-12-07T01:32:33;7.70;74.40
19060;DHT22;9663;48.996;8.334;2022-12-07T01:34:59;7.70;74.50
19060;DHT22;9663;48.996;8.334;2022-12-07T01:37:25;9.30;75.50
19060;DHT22;9663;48.996;8.334;2022-12-07T01:39:51;7.70;74.50
19060;DHT22;9663;48.996;8.334;2022-12-07T01:42:18;8.00;74.70
19060;DHT22;9663;48.996;8.334;2022-12-07T01:47:52;7.60;74.50
19060;DHT22;9663;48.996;8.334;2022-12-07T01:50:22;7.80;74.60
19060;DHT22;9663;48.996;8.334;2022-12-07T01:52:52;9.30;75.60
19060;DHT22;9663;48.996;8.334;2022-12-07T01:55:20;7.50;74.50
19060;DHT22;9663;48.996;8.334;2022-12-07T01:57:51;6.90;74.20
19060;DHT22;9663;48.996;8.334;2022-12-07T02:00:20;8.50;75.30
19060;DHT22;9663;48.996;8.334;2022-12-07T02:02:51;7.40;74.60
19060;DHT22;9663;48.996;8.334;2022-12-07T02:05:22;7.20;74.50
19060;DHT22;9663;48.996;8.334;2022-12-07T02:07:51;7.20;74.50
19060;DHT22;9663;48.996;8.334;2022-12-07T02:10:22;9.70;76.10
19060;DHT22;9663;48.996;8.334;2022-12-07T02:12:57;7.20;74.60
19060;DHT22;9663;48.996;8.334;2022-12-07T02:15:33;8.00;75.20
19060;DHT22;9663;48.996;8.334;2022-12-07T02:18:24;7.40;74.90
19060;DHT22;9663;48.996;8.334;2022-12-07T02:29:27;7.50;74.80
19060;DHT22;9663;48.996;8.334;2022-12-07T02:37:37;7.50;74.90
19060;DHT22;9663;48.996;8.334;2022-12-07T02:40:21;7.30;74.90
19060;DHT22;9663;48.996;8.334;2022-12-07T02:43:19;7.30;74.60
19060;DHT22;9663;48.996;8.334;2022-12-07T02:45:50;7.20;74.50
19060;DHT22;9663;48.996;8.334;2022-12-07T02:48:19;7.50;74.80
19060;DHT22;9663;48.996;8.334;2022-12-07T02:50:50;8.20;75.30
19060;DHT22;9663;48.996;8.334;2022-12-07T02:53:37;7.30;75.60
19060;DHT22;9663;48.996;8.334;2022-12-07T02:56:20;7.00;74.60
19060;DHT22;9663;48.996;8.334;2022-12-07T03:11:04;7.00;74.50
19060;DHT22;9663;48.996;8.334;2022-12-07T03:16:23;8.80;75.70
19060;DHT22;9663;48.996;8.334;2022-12-07T03:19:15;7.10;74.80
19060;DHT22;9663;48.996;8.334;2022-12-07T03:21:48;7.00;74.80
19060;DHT22;9663;48.996;8.334;2022-12-07T03:24:21;7.20;74.90
19060;DHT22;9663;48.996;8.334;2022-12-07T03:26:54;8.40;75.70
19060;DHT22;9663;48.996;8.334;2022-12-07T03:29:30;7.20;74.90
19060;DHT22;9663;48.996;8.334;2022-12-07T03:35:05;7.10;74.60
19060;DHT22;9663;48.996;8.334;2022-12-07T03:37:42;7.20;74.70
19060;DHT22;9663;48.996;8.334;2022-12-07T03:40:18;7.30;74.80
19060;DHT22;9663;48.996;8.334;2022-12-07T03:42:52;6.90;75.10
19060;DHT22;9663;48.996;8.334;2022-12-07T03:45:24;6.80;74.50
19060;DHT22;9663;48.996;8.334;2022-12-07T03:48:32;6.70;74.60
19060;DHT22;9663;48.996;8.334;2022-12-07T03:54:02;6.90;75.30
19060;DHT22;9663;48.996;8.334;2022-12-07T03:56:36;6.60;74.70
19060;DHT22;9663;48.996;8.334;2022-12-07T03:59:02;8.70;76.30
19060;DHT22;9663;48.996;8.334;2022-12-07T04:01:28;6.40;75.00
19060;DHT22;9663;48.996;8.334;2022-12-07T04:03:54;6.70;75.30
19060;DHT22;9663;48.996;8.334;2022-12-07T04:06:20;7.00;75.60
19060;DHT22;9663;48.996;8.334;2022-12-07T04:08:45;7.20;75.70
19060;DHT22;9663;48.996;8.334;2022-12-07T04:11:11;6.80;75.50
19060;DHT22;9663;48.996;8.334;2022-12-07T04:13:37;6.50;75.40
19060;DHT22;9663;48.996;8.334;2022-12-07T04:16:22;7.70;76.10
19060;DHT22;9663;48.996;8.334;2022-12-07T04:18:48;8.50;76.60
19060;DHT22;9663;48.996;8.334;2022-12-07T04:21:14;6.80;75.50
19060;DHT22;9663;48.996;8.334;2022-12-07T04:23:39;7.40;75.90
19060;DHT22;9663;48.996;8.334;2022-12-07T04:26:05;6.70;75.40
19060;DHT22;9663;48.996;8.334;2022-12-07T04:28:31;7.30;75.80
19060;DHT22;9663;48.996;8.334;2022-12-07T04:30:56;6.70;75.40
19060;DHT22;9663;48.996;8.334;2022-12-07T04:33:22;6.80;75.60
19060;DHT22;9663;48.996;8.334;2022-12-07T04:35:48;6.60;75.40
19060;DHT22;9663;48.996;8.334;2022-12-07T04:38:14;6.60;75.40
19060;DHT22;9663;48.996;8.334;2022-12-07T04:40:39;6.80;75.50
19060;DHT22;9663;48.996;8.334;2022-12-07T04:43:05;8.30;76.40
19060;DHT22;9663;48.996;8.334;2022-12-07T04:45:31;6.90;75.50
19060;DHT22;9663;48.996;8.334;2022-12-07T04:47:57;6.90;75.50
19060;DHT22;9663;48.996;8.334;2022-12-07T04:50:22;6.80;75.60
19060;DHT22;9663;48.996;8.334;2022-12-07T04:52:48;6.90;75.60
19060;DHT22;9663;48.996;8.334;2022-12-07T04:55:14;8.40;76.60
19060;DHT22;9663;48.996;8.334;2022-12-07T04:57:39;7.00;76.50
19060;DHT22;9663;48.996;8.334;2022-12-07T05:00:06;6.70;75.50
19060;DHT22;9663;48.996;8.334;2022-12-07T05:02:32;6.90;75.40
19060;DHT22;9663;48.996;8.334;2022-12-07T05:04:58;6.90;75.60
19060;DHT22;9663;48.996;8.334;2022-12-07T05:07:23;6.80;75.60
19060;DHT22;9663;48.996;8.334;2022-12-07T05:09:49;6.90;76.30
19060;DHT22;9663;48.996;8.334;2022-12-07T05:12:15;6.90;75.60
19060;DHT22;9663;48.996;8.334;2022-12-07T05:14:40;7.80;76.20
19060;DHT22;9663;48.996;8.334;2022-12-07T05:17:06;9.00;76.70
19060;DHT22;9663;48.996;8.334;2022-12-07T05:19:32;6.80;75.50
19060;DHT22;9663;48.996;8.334;2022-12-07T05:21:57;8.80;76.60
19060;DHT22;9663;48.996;8.334;2022-12-07T05:24:23;6.80;75.40
19060;DHT22;9663;48.996;8.334;2022-12-07T05:26:49;7.10;75.60
19060;DHT22;9663;48.996;8.334;2022-12-07T05:29:16;6.70;75.30
19060;DHT22;9663;48.996;8.334;2022-12-07T05:31:43;6.90;75.30
19060;DHT22;9663;48.996;8.334;2022-12-07T05:34:09;7.90;75.80
19060;DHT22;9663;48.996;8.334;2022-12-07T05:36:35;7.00;75.20
19060;DHT22;9663;48.996;8.334;2022-12-07T05:39:02;6.80;75.20
19060;DHT22;9663;48.996;8.334;2022-12-07T05:41:28;6.80;75.20
19060;DHT22;9663;48.996;8.334;2022-12-07T05:44:12;7.10;75.20
19060;DHT22;9663;48.996;8.334;2022-12-07T05:46:38;9.30;76.80
19060;DHT22;9663;48.996;8.334;2022-12-07T05:49:03;9.30;76.70
19060;DHT22;9663;48.996;8.334;2022-12-07T05:51:29;6.80;75.10
19060;DHT22;9663;48.996;8.334;2022-12-07T05:53:55;6.90;75.40
19060;DHT22;9663;48.996;8.334;2022-12-07T05:56:21;7.20;75.80
19060;DHT22;9663;48.996;8.334;2022-12-07T05:58:48;6.60;75.30
19060;DHT22;9663;48.996;8.334;2022-12-07T06:01:32;6.90;76.00
19060;DHT22;9663;48.996;8.334;2022-12-07T06:03:58;6.90;75.50
19060;DHT22;9663;48.996;8.334;2022-12-07T06:06:23;6.80;75.70
19060;DHT22;9663;48.996;8.334;2022-12-07T06:08:49;7.60;76.40
19060;DHT22;9663;48.996;8.334;2022-12-07T06:11:15;7.70;76.10
19060;DHT22;9663;48.996;8.334;2022-12-07T06:13:59;6.50;75.20
19060;DHT22;9663;48.996;8.334;2022-12-07T06:16:25;9.00;76.80
19060;DHT22;9663;48.996;8.334;2022-12-07T06:18:51;8.90;76.90
19060;DHT22;9663;48.996;8.334;2022-12-07T06:21:16;8.50;76.90
19060;DHT22;9663;48.996;8.334;2022-12-07T06:23:42;6.90;75.90
19060;DHT22;9663;48.996;8.334;2022-12-07T06:26:08;7.20;76.10
19060;DHT22;9663;48.996;8.334;2022-12-07T06:28:33;7.10;75.80
19060;DHT22;9663;48.996;8.334;2022-12-07T06:31:00;6.70;75.70
19060;DHT22;9663;48.996;8.334;2022-12-07T06:33:27;6.90;75.70
19060;DHT22;9663;48.996;8.334;2022-12-07T06:35:53;7.10;75.90
19060;DHT22;9663;48.996;8.334;2022-12-07T06:38:19;7.00;76.00
19060;DHT22;9663;48.996;8.334;2022-12-07T06:40:45;8.40;76.60
19060;DHT22;9663;48.996;8.334;2022-12-07T06:43:11;6.80;75.80
19060;DHT22;9663;48.996;8.334;2022-12-07T06:45:37;8.90;77.10
19060;DHT22;9663;48.996;8.334;2022-12-07T06:48:02;7.10;76.00
19060;DHT22;9663;48.996;8.334;2022-12-07T06:50:28;6.90;76.60
19060;DHT22;9663;48.996;8.334;2022-12-07T06:52:54;8.20;76.50
19060;DHT22;9663;48.996;8.334;2022-12-07T06:55:19;6.80;75.60
19060;DHT22;9663;48.996;8.334;2022-12-07T06:57:45;7.00;75.80
19060;DHT22;9663;48.996;8.334;2022-12-07T07:00:11;6.70;75.60
19060;DHT22;9663;48.996;8.334;2022-12-07T07:02:38;7.00;75.50
19060;DHT22;9663;48.996;8.334;2022-12-07T07:05:03;8.30;76.70
19060;DHT22;9663;48.996;8.334;2022-12-07T07:07:29;6.70;75.70
19060;DHT22;9663;48.996;8.334;2022-12-07T07:09:55;6.80;76.60
19060;DHT22;9663;48.996;8.334;2022-12-07T07:12:21;8.10;76.30
19060;DHT22;9663;48.996;8.334;2022-12-07T07:14:46;8.90;76.90
19060;DHT22;9663;48.996;8.334;2022-12-07T07:17:12;8.00;76.20
19060;DHT22;9663;48.996;8.334;2022-12-07T07:19:38;7.40;76.20
19060;DHT22;9663;48.996;8.334;2022-12-07T07:22:04;6.60;75.50
19060;DHT22;9663;48.996;8.334;2022-12-07T07:24:30;6.90;75.60
19060;DHT22;9663;48.996;8.334;2022-12-07T07:26:55;7.60;75.90
19060;DHT22;9663;48.996;8.334;2022-12-07T07:29:21;6.90;75.40
19060;DHT22;9663;48.996;8.334;2022-12-07T07:31:47;7.60;75.80
19060;DHT22;9663;48.996;8.334;2022-12-07T07:34:13;8.00;76.90
19060;DHT22;9663;48.996;8.334;2022-12-07T07:36:39;7.60;76.10
19060;DHT22;9663;48.996;8.334;2022-12-07T07:39:04;6.90;75.40
19060;DHT22;9663;48.996;8.334;2022-12-07T07:41:30;7.10;75.80
19060;DHT22;9663;48.996;8.334;2022-12-07T07:43:57;8.70;76.60
19060;DHT22;9663;48.996;8.334;2022-12-07T07:46:22;6.80;75.40
19060;DHT22;9663;48.996;8.334;2022-12-07T07:48:48;6.90;75.40
19060;DHT22;9663;48.996;8.334;2022-12-07T07:51:14;6.70;75.40
19060;DHT22;9663;48.996;8.334;2022-12-07T07:53:40;8.60;76.40
19060;DHT22;9663;48.996;8.334;2022-12-07T07:56:05;7.90;76.10
19060;DHT22;9663;48.996;8.334;2022-12-07T07:58:31;6.90;75.30
19060;DHT22;9663;48.996;8.334;2022-12-07T08:00:57;9.40;76.80
19060;DHT22;9663;48.996;8.334;2022-12-07T08:03:28;8.90;76.40
19060;DHT22;9663;48.996;8.334;2022-12-07T08:05:54;7.10;75.50
19060;DHT22;9663;48.996;8.334;2022-12-07T08:08:20;6.90;75.30
19060;DHT22;9663;48.996;8.334;2022-12-07T08:10:45;8.60;76.30
19060;DHT22;9663;48.996;8.334;2022-12-07T08:13:11;7.90;75.90
19060;DHT22;9663;48.996;8.334;2022-12-07T08:15:40;7.10;75.30
19060;DHT22;9663;48.996;8.334;2022-12-07T08:18:07;7.40;75.40
19060;DHT22;9663;48.996;8.334;2022-12-07T08:20:34;6.90;75.00
19060;DHT22;9663;48.996;8.334;2022-12-07T08:23:01;9.20;76.30
19060;DHT22;9663;48.996;8.334;2022-12-07T08:25:28;9.20;76.30
19060;DHT22;9663;48.996;8.334;2022-12-07T08:27:54;7.30;75.40
19060;DHT22;9663;48.996;8.334;2022-12-07T08:30:20;9.40;76.60
19060;DHT22;9663;48.996;8.334;2022-12-07T08:32:47;8.10;75.30
19060;DHT22;9663;48.996;8.334;2022-12-07T08:35:14;7.00;74.40
19060;DHT22;9663;48.996;8.334;2022-12-07T08:37:40;7.00;74.60
19060;DHT22;9663;48.996;8.334;2022-12-07T08:40:08;7.20;75.50
19060;DHT22;9663;48.996;8.334;2022-12-07T08:42:34;7.40;74.90
19060;DHT22;9663;48.996;8.334;2022-12-07T08:45:07;7.40;74.60
19060;DHT22;9663;48.996;8.334;2022-12-07T08:47:37;7.20;74.60
19060;DHT22;9663;48.996;8.334;2022-12-07T08:50:07;7.40;74.90
19060;DHT22;9663;48.996;8.334;2022-12-07T08:52:35;7.30;74.60
19060;DHT22;9663;48.996;8.334;2022-12-07T08:55:03;8.80;75.80
19060;DHT22;9663;48.996;8.334;2022-12-07T08:57:32;7.30;74.80
19060;DHT22;9663;48.996;8.334;2022-12-07T09:00:02;9.20;75.80
19060;DHT22;9663;48.996;8.334;2022-12-07T09:02:30;7.30;74.50
19060;DHT22;9663;48.996;8.334;2022-12-07T09:04:57;7.30;74.40
19060;DHT22;9663;48.996;8.334;2022-12-07T09:07:23;7.50;74.80
19060;DHT22;9663;48.996;8.334;2022-12-07T09:09:49;8.20;75.20
19060;DHT22;9663;48.996;8.334;2022-12-07T09:12:15;7.40;74.90
19060;DHT22;9663;48.996;8.334;2022-12-07T09:14:41;7.50;75.30
19060;DHT22;9663;48.996;8.334;2022-12-07T09:17:08;7.90;75.80
19060;DHT22;9663;48.996;8.334;2022-12-07T09:19:36;8.40;75.60
19060;DHT22;9663;48.996;8.334;2022-12-07T09:22:02;7.60;75.30
19060;DHT22;9663;48.996;8.334;2022-12-07T09:24:30;7.90;75.10
19060;DHT22;9663;48.996;8.334;2022-12-07T09:26:57;7.90;75.10
19060;DHT22;9663;48.996;8.334;2022-12-07T09:29:23;7.80;74.60
19060;DHT22;9663;48.996;8.334;2022-12-07T09:31:49;9.50;75.50
19060;DHT22;9663;48.996;8.334;2022-12-07T09:34:15;8.90;74.90
19060;DHT22;9663;48.996;8.334;2022-12-07T09:36:41;7.80;74.20
19060;DHT22;9663;48.996;8.334;2022-12-07T09:39:08;7.80;74.10
19060;DHT22;9663;48.996;8.334;2022-12-07T09:41:38;9.40;74.90
19060;DHT22;9663;48.996;8.334;2022-12-07T09:44:10;10.30;75.30
19060;DHT22;9663;48.996;8.334;2022-12-07T09:46:40;9.30;74.70
19060;DHT22;9663;48.996;8.334;2022-12-07T09:49:16;8.00;73.80
19060;DHT22;9663;48.996;8.334;2022-12-07T09:51:58;7.90;73.80
19060;DHT22;9663;48.996;8.334;2022-12-07T09:54:29;8.20;73.80
19060;DHT22;9663;48.996;8.334;2022-12-07T09:56:56;8.10;73.80
19060;DHT22;9663;48.996;8.334;2022-12-07T09:59:22;8.40;73.90
19060;DHT22;9663;48.996;8.334;2022-12-07T10:01:49;9.90;74.80
19060;DHT22;9663;48.996;8.334;2022-12-07T10:04:19;8.20;73.60
19060;DHT22;9663;48.996;8.334;2022-12-07T10:06:47;8.30;73.40
19060;DHT22;9663;48.996;8.334;2022-12-07T10:09:16;8.50;73.70
19060;DHT22;9663;48.996;8.334;2022-12-07T10:12:10;8.30;73.50
19060;DHT22;9663;48.996;8.334;2022-12-07T10:14:57;8.10;72.80
19060;DHT22;9663;48.996;8.334;2022-12-07T10:17:35;8.20;73.30
19060;DHT22;9663;48.996;8.334;2022-12-07T10:20:18;8.40;73.30
19060;DHT22;9663;48.996;8.334;2022-12-07T10:23:03;8.30;73.10
19060;DHT22;9663;48.996;8.334;2022-12-07T10:25:34;8.20;73.10
19060;DHT22;9663;48.996;8.334;2022-12-07T10:30:48;8.30;73.30
19060;DHT22;9663;48.996;8.334;2022-12-07T10:36:19;8.30;72.70
19060;DHT22;9663;48.996;8.334;2022-12-07T10:39:02;8.40;72.80
19060;DHT22;9663;48.996;8.334;2022-12-07T10:41:36;8.50;72.90
19060;DHT22;9663;48.996;8.334;2022-12-07T10:44:23;10.10;73.80
19060;DHT22;9663;48.996;8.334;2022-12-07T10:47:17;8.20;72.50
19060;DHT22;9663;48.996;8.334;2022-12-07T10:50:12;8.10;72.00
19060;DHT22;9663;48.996;8.334;2022-12-07T11:01:31;8.50;72.50
19060;DHT22;9663;48.996;8.334;2022-12-07T11:07:24;8.50;72.60
19060;DHT22;9663;48.996;8.334;2022-12-07T11:10:01;8.30;72.70
19060;DHT22;9663;48.996;8.334;2022-12-07T11:16:08;8.50;72.70
19060;DHT22;9663;48.996;8.334;2022-12-07T11:22:22;8.60;72.50
19060;DHT22;9663;48.996;8.334;2022-12-07T11:31:02;8.50;72.70
19060;DHT22;9663;48.996;8.334;2022-12-07T11:33:57;8.40;72.60
19060;DHT22;9663;48.996;8.334;2022-12-07T11:39:57;10.50;73.70
19060;DHT22;9663;48.996;8.334;2022-12-07T11:42:24;8.50;72.40
19060;DHT22;9663;48.996;8.334;2022-12-07T11:47:46;8.60;72.80
19060;DHT22;9663;48.996;8.334;2022-12-07T11:53:14;8.80;72.70
19060;DHT22;9663;48.996;8.334;2022-12-07T11:56:28;9.00;72.50
19060;DHT22;9663;48.996;8.334;2022-12-07T11:58:51;11.00;73.90
19060;DHT22;9663;48.996;8.334;2022-12-07T12:02:12;8.80;72.10
19060;DHT22;9663;48.996;8.334;2022-12-07T12:07:17;9.20;72.10
19060;DHT22;9663;48.996;8.334;2022-12-07T12:10:15;9.00;72.30
19060;DHT22;9663;48.996;8.334;2022-12-07T12:13:15;8.80;71.80
19060;DHT22;9663;48.996;8.334;2022-12-07T12:22:21;9.10;72.10
19060;DHT22;9663;48.996;8.334;2022-12-07T12:24:56;9.90;72.50
19060;DHT22;9663;48.996;8.334;2022-12-07T12:27:30;9.10;72.10
19060;DHT22;9663;48.996;8.334;2022-12-07T12:30:03;9.10;71.80
19060;DHT22;9663;48.996;8.334;2022-12-07T12:32:35;9.70;72.40
19060;DHT22;9663;48.996;8.334;2022-12-07T12:35:30;9.10;72.10
19060;DHT22;9663;48.996;8.334;2022-12-07T12:40:56;9.20;71.80
19060;DHT22;9663;48.996;8.334;2022-12-07T12:43:50;10.40;72.80
19060;DHT22;9663;48.996;8.334;2022-12-07T12:49:30;9.00;71.70
19060;DHT22;9663;48.996;8.334;2022-12-07T12:57:35;9.00;71.90
19060;DHT22;9663;48.996;8.334;2022-12-07T13:00:23;11.30;73.30
19060;DHT22;9663;48.996;8.334;2022-12-07T13:02:55;9.70;72.10
19060;DHT22;9663;48.996;8.334;2022-12-07T13:05:31;8.70;71.60
19060;DHT22;9663;48.996;8.334;2022-12-07T13:10:43;8.70;71.70
19060;DHT22;9663;48.996;8.334;2022-12-07T13:18:35;8.70;71.80
19060;DHT22;9663;48.996;8.334;2022-12-07T13:37:12;8.40;71.80
19060;DHT22;9663;48.996;8.334;2022-12-07T13:40:18;8.80;72.40
19060;DHT22;9663;48.996;8.334;2022-12-07T13:42:46;8.70;72.00
19060;DHT22;9663;48.996;8.334;2022-12-07T13:45:29;8.70;72.30
19060;DHT22;9663;48.996;8.334;2022-12-07T13:48:41;8.40;71.90
19060;DHT22;9663;48.996;8.334;2022-12-07T13:51:18;8.60;72.00
19060;DHT22;9663;48.996;8.334;2022-12-07T13:53:59;8.40;72.10
19060;DHT22;9663;48.996;8.334;2022-12-07T13:56:32;8.50;72.20
19060;DHT22;9663;48.996;8.334;2022-12-07T13:59:00;9.30;72.90
19060;DHT22;9663;48.996;8.334;2022-12-07T14:01:26;8.40;72.40
19060;DHT22;9663;48.996;8.334;2022-12-07T14:03:55;8.80;72.70
19060;DHT22;9663;48.996;8.334;2022-12-07T14:06:26;8.60;72.50
19060;DHT22;9663;48.996;8.334;2022-12-07T14:09:18;8.70;72.50
19060;DHT22;9663;48.996;8.334;2022-12-07T14:11:48;8.70;72.80
19060;DHT22;9663;48.996;8.334;2022-12-07T14:14:25;9.20;73.00
19060;DHT22;9663;48.996;8.334;2022-12-07T14:17:16;8.90;72.40
19060;DHT22;9663;48.996;8.334;2022-12-07T14:19:53;10.40;73.30
19060;DHT22;9663;48.996;8.334;2022-12-07T14:25:21;10.00;72.90
19060;DHT22;9663;48.996;8.334;2022-12-07T14:27:59;8.90;72.10
19060;DHT22;9663;48.996;8.334;2022-12-07T14:30:31;8.90;71.80
19060;DHT22;9663;48.996;8.334;2022-12-07T14:33:01;8.80;71.80
19060;DHT22;9663;48.996;8.334;2022-12-07T14:35:31;10.30;72.70
19060;DHT22;9663;48.996;8.334;2022-12-07T14:37:57;9.40;72.20
19060;DHT22;9663;48.996;8.334;2022-12-07T14:40:25;8.80;71.80
19060;DHT22;9663;48.996;8.334;2022-12-07T14:43:00;9.60;72.20
19060;DHT22;9663;48.996;8.334;2022-12-07T14:45:32;8.70;71.40
19060;DHT22;9663;48.996;8.334;2022-12-07T14:47:58;8.40;71.40
19060;DHT22;9663;48.996;8.334;2022-12-07T14:50:24;8.80;71.70
19060;DHT22;9663;48.996;8.334;2022-12-07T14:52:54;10.70;72.70
19060;DHT22;9663;48.996;8.334;2022-12-07T14:55:25;8.60;71.40
19060;DHT22;9663;48.996;8.334;2022-12-07T14:57:53;8.80;71.70
19060;DHT22;9663;48.996;8.334;2022-12-07T15:00:21;8.60;71.70
19060;DHT22;9663;48.996;8.334;2022-12-07T15:02:50;9.30;72.20
19060;DHT22;9663;48.996;8.334;2022-12-07T15:05:17;8.70;71.70
19060;DHT22;9663;48.996;8.334;2022-12-07T15:07:44;8.70;71.80
19060;DHT22;9663;48.996;8.334;2022-12-07T15:10:25;8.40;71.70
19060;DHT22;9663;48.996;8.334;2022-12-07T15:12:55;8.30;71.50
19060;DHT22;9663;48.996;8.334;2022-12-07T15:15:45;10.20;72.90
19060;DHT22;9663;48.996;8.334;2022-12-07T15:18:12;7.90;71.50
19060;DHT22;9663;48.996;8.334;2022-12-07T15:20:38;8.20;71.80
19060;DHT22;9663;48.996;8.334;2022-12-07T15:23:04;10.30;73.20
19060;DHT22;9663;48.996;8.334;2022-12-07T15:25:30;8.30;72.00
19060;DHT22;9663;48.996;8.334;2022-12-07T15:27:56;8.20;72.00
19060;DHT22;9663;48.996;8.334;2022-12-07T15:30:21;8.40;72.20
19060;DHT22;9663;48.996;8.334;2022-12-07T15:32:52;8.20;72.10
19060;DHT22;9663;48.996;8.334;2022-12-07T15:35:18;8.20;73.10
19060;DHT22;9663;48.996;8.334;2022-12-07T15:37:45;8.30;72.30
19060;DHT22;9663;48.996;8.334;2022-12-07T15:40:12;8.00;72.10
19060;DHT22;9663;48.996;8.334;2022-12-07T15:42:38;8.00;72.10
19060;DHT22;9663;48.996;8.334;2022-12-07T15:45:05;8.00;72.10
19060;DHT22;9663;48.996;8.334;2022-12-07T15:47:35;8.10;72.10
19060;DHT22;9663;48.996;8.334;2022-12-07T15:50:07;8.00;72.00
19060;DHT22;9663;48.996;8.334;2022-12-07T15:52:35;8.10;72.10
19060;DHT22;9663;48.996;8.334;2022-12-07T15:55:02;8.10;72.30
19060;DHT22;9663;48.996;8.334;2022-12-07T15:57:35;8.10;72.20
19060;DHT22;9663;48.996;8.334;2022-12-07T16:00:03;8.00;72.10
19060;DHT22;9663;48.996;8.334;2022-12-07T16:02:34;7.80;72.00
19060;DHT22;9663;48.996;8.334;2022-12-07T16:05:01;8.90;72.70
19060;DHT22;9663;48.996;8.334;2022-12-07T16:07:27;9.50;73.00
19060;DHT22;9663;48.996;8.334;2022-12-07T16:09:53;7.90;72.10
19060;DHT22;9663;48.996;8.334;2022-12-07T16:12:19;7.00;71.50
19060;DHT22;9663;48.996;8.334;2022-12-07T16:14:44;7.70;72.00
19060;DHT22;9663;48.996;8.334;2022-12-07T16:17:10;7.80;72.00
19060;DHT22;9663;48.996;8.334;2022-12-07T16:19:37;8.20;72.40
19060;DHT22;9663;48.996;8.334;2022-12-07T16:22:03;7.60;71.90
19060;DHT22;9663;48.996;8.334;2022-12-07T16:24:31;7.80;72.10
19060;DHT22;9663;48.996;8.334;2022-12-07T16:26:57;9.30;73.10
19060;DHT22;9663;48.996;8.334;2022-12-07T16:29:23;9.50;73.40
19060;DHT22;9663;48.996;8.334;2022-12-07T16:31:51;7.60;72.30
19060;DHT22;9663;48.996;8.334;2022-12-07T16:34:17;7.50;72.60
19060;DHT22;9663;48.996;8.334;2022-12-07T16:36:46;7.60;72.30
19060;DHT22;9663;48.996;8.334;2022-12-07T16:39:12;7.30;72.30
19060;DHT22;9663;48.996;8.334;2022-12-07T16:41:38;7.50;72.60
19060;DHT22;9663;48.996;8.334;2022-12-07T16:44:06;7.40;72.70
19060;DHT22;9663;48.996;8.334;2022-12-07T16:46:35;7.40;72.50
19060;DHT22;9663;48.996;8.334;2022-12-07T16:49:01;7.40;72.60
19060;DHT22;9663;48.996;8.334;2022-12-07T16:51:28;7.10;72.50
19060;DHT22;9663;48.996;8.334;2022-12-07T16:53:54;7.50;72.80
19060;DHT22;9663;48.996;8.334;2022-12-07T16:56:20;7.50;73.20
19060;DHT22;9663;48.996;8.334;2022-12-07T16:58:46;9.00;73.80
19060;DHT22;9663;48.996;8.334;2022-12-07T17:01:19;7.30;72.80
19060;DHT22;9663;48.996;8.334;2022-12-07T17:03:48;7.20;72.60
19060;DHT22;9663;48.996;8.334;2022-12-07T17:06:23;7.90;73.20
19060;DHT22;9663;48.996;8.334;2022-12-07T17:08:51;7.50;72.80
19060;DHT22;9663;48.996;8.334;2022-12-07T17:11:23;10.10;74.30
19060;DHT22;9663;48.996;8.334;2022-12-07T17:13:52;7.40;72.60
19060;DHT22;9663;48.996;8.334;2022-12-07T17:16:37;7.50;72.60
19060;DHT22;9663;48.996;8.334;2022-12-07T17:19:08;7.40;72.70
19060;DHT22;9663;48.996;8.334;2022-12-07T17:21:36;7.30;72.60
19060;DHT22;9663;48.996;8.334;2022-12-07T17:24:06;7.50;72.80
19060;DHT22;9663;48.996;8.334;2022-12-07T17:26:35;7.30;72.60
19060;DHT22;9663;48.996;8.334;2022-12-07T17:29:04;9.20;73.90
19060;DHT22;9663;48.996;8.334;2022-12-07T17:31:31;8.20;73.40
19060;DHT22;9663;48.996;8.334;2022-12-07T17:33:58;9.20;74.00
19060;DHT22;9663;48.996;8.334;2022-12-07T17:36:26;7.50;73.00
19060;DHT22;9663;48.996;8.334;2022-12-07T17:38:54;7.40;72.90
19060;DHT22;9663;48.996;8.334;2022-12-07T17:41:25;7.30;72.90
19060;DHT22;9663;48.996;8.334;2022-12-07T17:44:13;6.80;72.50
19060;DHT22;9663;48.996;8.334;2022-12-07T17:46:43;7.10;72.70
19060;DHT22;9663;48.996;8.334;2022-12-07T17:49:10;7.30;72.80
19060;DHT22;9663;48.996;8.334;2022-12-07T17:51:35;9.40;74.10
19060;DHT22;9663;48.996;8.334;2022-12-07T17:54:20;7.50;72.80
19060;DHT22;9663;48.996;8.334;2022-12-07T17:56:46;7.50;72.90
19060;DHT22;9663;48.996;8.334;2022-12-07T17:59:13;9.20;73.90
19060;DHT22;9663;48.996;8.334;2022-12-07T18:01:39;7.40;72.90
19060;DHT22;9663;48.996;8.334;2022-12-07T18:04:06;7.40;73.60
19060;DHT22;9663;48.996;8.334;2022-12-07T18:06:33;7.50;72.80
19060;DHT22;9663;48.996;8.334;2022-12-07T18:08:59;9.20;73.80
19060;DHT22;9663;48.996;8.334;2022-12-07T18:11:25;8.10;73.10
19060;DHT22;9663;48.996;8.334;2022-12-07T18:13:51;7.20;72.60
19060;DHT22;9663;48.996;8.334;2022-12-07T18:16:22;7.50;72.70
19060;DHT22;9663;48.996;8.334;2022-12-07T18:18:50;7.50;72.60
19060;DHT22;9663;48.996;8.334;2022-12-07T18:21:23;7.20;72.50
19060;DHT22;9663;48.996;8.334;2022-12-07T18:23:52;7.50;72.60
19060;DHT22;9663;48.996;8.334;2022-12-07T18:26:21;7.80;72.90
19060;DHT22;9663;48.996;8.334;2022-12-07T18:28:48;8.20;73.10